Time;durP1;ratioP1;P1;durP2;ratioP2;P2;SDS_P1;SDS_P2;PMS_P1;PMS_P2;Temp;Humidity;BMP_temperature;BMP_pressure;BME280_temperature;BME280_humidity;BME280_pressure;Samples;Min_cycle;Max_cycle;Signal;HPM_P1;HPM_P2
2022/01/07 00:01:19;;;;;;;11.40;3.20;;;;;;;-4.07;90.70;99874.66;104914;1278;61019;-67
2022/01/07 00:04:17;;;;;;;10.60;3.30;;;;;;;-4.08;90.71;99872.59;104621;1278;70990;-67
2022/01/07 00:07:16;;;;;;;11.30;2.70;;;;;;;-4.10;90.47;99873.49;104864;1278;67115;-67
2022/01/07 00:10:37;;;;;;;8.80;2.60;;;;;;;-4.12;90.38;99880.29;104920;1277;70658;-67
2022/01/07 00:14:26;;;;;;;11.40;2.80;;;;;;;-4.13;90.46;99877.88;104917;1277;59647;-67
2022/01/07 00:17:58;;;;;;;11.00;2.50;;;;;;;-4.13;90.42;99881.17;104916;1274;59622;-67
2022/01/07 00:20:49;;;;;;;11.30;2.60;;;;;;;-4.14;90.50;99880.48;104727;1274;71372;-67
2022/01/07 00:24:04;;;;;;;11.40;2.30;;;;;;;-4.16;90.45;99879.33;104782;1274;68353;-67
2022/01/07 00:27:27;;;;;;;8.80;2.20;;;;;;;-4.20;90.57;99880.80;104848;1274;72804;-67
2022/01/07 00:30:43;;;;;;;11.90;3.00;;;;;;;-4.24;90.85;99886.95;105095;1274;59584;-67
2022/01/07 00:33:39;;;;;;;11.40;2.60;;;;;;;-4.28;91.02;99882.86;105288;1273;60335;-67
2022/01/07 00:36:39;;;;;;;10.90;3.20;;;;;;;-4.29;91.16;99884.61;104864;1273;72305;-67
2022/01/07 00:39:35;;;;;;;7.80;2.20;;;;;;;-4.29;91.32;99885.66;105222;1274;66834;-67
2022/01/07 00:42:51;;;;;;;8.80;2.50;;;;;;;-4.29;91.51;99886.86;105215;1273;71626;-67
2022/01/07 00:45:54;;;;;;;9.60;2.40;;;;;;;-4.26;91.57;99889.95;105221;1274;59804;-67
2022/01/07 00:49:04;;;;;;;9.00;2.30;;;;;;;-4.19;92.44;99889.10;104789;1274;59605;-67
2022/01/07 00:52:08;;;;;;;9.30;2.60;;;;;;;-4.10;92.81;99888.06;104822;1274;73860;-67
2022/01/07 00:55:20;;;;;;;8.40;1.90;;;;;;;-4.03;92.61;99887.40;104403;1274;1003339;-67
2022/01/07 00:58:15;;;;;;;7.70;2.30;;;;;;;-3.99;92.65;99883.48;104306;1274;1003053;-67
2022/01/07 01:01:20;;;;;;;13.50;2.60;;;;;;;-3.91;92.91;99886.28;104967;1274;59791;-68
2022/01/07 01:05:33;;;;;;;7.90;1.80;;;;;;;-3.85;92.59;99874.37;105328;1274;60784;-68
2022/01/07 01:08:42;;;;;;;9.90;1.90;;;;;;;-3.82;92.76;99872.21;105080;1273;71730;-67
2022/01/07 01:11:36;;;;;;;10.80;2.30;;;;;;;-3.82;92.84;99868.92;105030;1274;66951;-68
2022/01/07 01:14:30;;;;;;;8.40;2.00;;;;;;;-3.84;93.03;99865.85;104944;1273;71777;-68
2022/01/07 01:17:37;;;;;;;8.80;2.10;;;;;;;-3.86;92.89;99863.63;105394;1274;59752;-68
2022/01/07 01:20:32;;;;;;;8.90;2.30;;;;;;;-3.86;92.85;99866.57;105149;1274;59697;-68
2022/01/07 01:23:49;;;;;;;7.00;1.90;;;;;;;-3.86;92.68;99866.23;105207;1273;71116;-67
2022/01/07 01:26:50;;;;;;;7.60;1.80;;;;;;;-3.87;92.63;99864.52;105268;1274;65896;-67
2022/01/07 01:29:50;;;;;;;7.80;1.90;;;;;;;-3.88;92.54;99858.65;105065;1274;71530;-67
2022/01/07 01:32:54;;;;;;;7.50;1.50;;;;;;;-3.91;92.28;99851.95;105054;1274;59816;-67
2022/01/07 01:36:14;;;;;;;;;;;;;;;;;;;;;
2022/01/07 01:39:54;;;;;;;6.40;1.70;;;;;;;-3.94;92.06;99843.17;105476;1274;73371;-68
2022/01/07 01:43:17;;;;;;;7.30;1.90;;;;;;;-3.94;91.73;99845.08;105269;1274;68479;-68
2022/01/07 01:46:11;;;;;;;6.90;1.70;;;;;;;-3.94;91.48;99847.15;105197;1274;72204;-68
2022/01/07 01:49:24;;;;;;;8.70;1.90;;;;;;;-3.95;91.13;99841.45;105199;1274;59753;-69
2022/01/07 01:52:35;;;;;;;8.00;1.70;;;;;;;-3.98;91.01;99843.42;105089;1274;59607;-69
2022/01/07 01:55:35;;;;;;;7.30;1.60;;;;;;;-4.00;90.95;99843.14;105147;1274;73323;-68
2022/01/07 01:58:31;;;;;;;8.20;1.90;;;;;;;-4.03;90.71;99835.91;105165;1274;67837;-67
2022/01/07 02:02:03;;;;;;;9.60;2.30;;;;;;;-4.05;90.71;99831.27;105040;1273;72791;-68
2022/01/07 02:05:33;;;;;;;9.60;2.20;;;;;;;-4.05;90.79;99829.91;104255;1273;1002940;-68
2022/01/07 02:08:30;;;;;;;9.40;1.90;;;;;;;-4.05;90.55;99834.91;105213;1273;59790;-68
2022/01/07 02:11:24;;;;;;;9.80;2.00;;;;;;;-4.05;90.67;99829.89;104798;1273;72031;-67
2022/01/07 02:14:20;;;;;;;8.80;1.90;;;;;;;-4.05;90.49;99825.75;105453;1274;67265;-67
2022/01/07 02:17:17;;;;;;;5.90;1.60;;;;;;;-4.06;90.49;99825.92;105260;1273;73432;-67
2022/01/07 02:20:29;;;;;;;8.30;1.90;;;;;;;-4.08;90.50;99820.77;104758;1273;1003384;-67
2022/01/07 02:24:04;;;;;;;8.20;1.70;;;;;;;-4.12;90.36;99817.73;105080;1273;60283;-67
2022/01/07 02:27:07;;;;;;;8.90;1.50;;;;;;;-4.17;90.47;99818.02;105167;1273;73978;-68
2022/01/07 02:29:59;;;;;;;9.60;1.90;;;;;;;-4.19;90.61;99810.10;104776;1274;65998;-67
2022/01/07 02:32:57;;;;;;;8.30;2.00;;;;;;;-4.21;90.66;99815.49;105182;1274;71535;-68
2022/01/07 02:35:47;;;;;;;8.40;1.90;;;;;;;-4.20;90.68;99814.44;105253;1274;59528;-67
2022/01/07 02:38:37;;;;;;;9.00;2.00;;;;;;;-4.18;90.75;99815.96;104987;1272;59648;-68
2022/01/07 02:41:53;;;;;;;9.60;1.80;;;;;;;-4.18;90.53;99810.59;105031;1273;73372;-68
2022/01/07 02:45:58;;;;;;;11.20;2.30;;;;;;;-4.17;90.83;99808.15;104983;1273;69410;-67
2022/01/07 02:48:52;;;;;;;7.80;1.80;;;;;;;-4.19;90.47;99806.78;104973;1274;73095;-68
2022/01/07 02:51:44;;;;;;;9.40;1.80;;;;;;;-4.20;90.75;99808.54;104486;1273;1003461;-67
2022/01/07 02:54:46;;;;;;;10.80;2.40;;;;;;;-4.21;91.16;99807.20;105251;1274;60386;-68
2022/01/07 02:57:42;;;;;;;7.00;1.70;;;;;;;-4.20;91.07;99802.83;105017;1274;73401;-68
2022/01/07 03:00:33;;;;;;;8.50;2.10;;;;;;;-4.19;91.22;99804.20;104770;1274;68156;-68
2022/01/07 03:03:38;;;;;;;6.10;1.60;;;;;;;-4.17;91.15;99801.20;105004;1273;73300;-67
2022/01/07 03:06:43;;;;;;;5.30;1.60;;;;;;;-4.16;91.55;99798.06;105226;1273;60024;-68
2022/01/07 03:09:37;;;;;;;10.20;2.30;;;;;;;-4.15;91.59;99793.71;105141;1273;60763;-67
2022/01/07 03:12:27;;;;;;;10.70;2.60;;;;;;;-4.10;91.65;99788.06;105061;1273;73368;-67
2022/01/07 03:15:23;;;;;;;12.00;2.60;;;;;;;-4.03;91.74;99783.05;104927;1274;66789;-67
2022/01/07 03:19:10;;;;;;;8.10;1.90;;;;;;;-3.99;91.32;99779.85;105360;1274;73163;-68
2022/01/07 03:22:18;;;;;;;8.80;2.10;;;;;;;-3.99;91.74;99776.90;104853;1273;60170;-67
2022/01/07 03:25:23;;;;;;;10.30;2.60;;;;;;;-4.01;92.21;99772.95;104487;1273;1003108;-67
2022/01/07 03:28:39;;;;;;;7.30;2.50;;;;;;;-4.01;92.90;99782.66;105154;1273;71981;-67
2022/01/07 03:31:38;;;;;;;8.50;2.30;;;;;;;-3.99;93.35;99782.98;104771;1274;66997;-67
2022/01/07 03:34:53;;;;;;;12.00;2.70;;;;;;;-3.98;93.41;99786.08;104852;1273;72676;-67
2022/01/07 03:37:50;;;;;;;11.50;2.20;;;;;;;-3.99;94.05;99784.17;104566;1274;1002887;-67
2022/01/07 03:40:41;;;;;;;10.80;2.50;;;;;;;-4.01;93.81;99787.16;104987;1274;60734;-67
2022/01/07 03:43:46;;;;;;;9.10;2.10;;;;;;;-4.03;93.95;99785.66;104359;1274;1003643;-67
2022/01/07 03:46:51;;;;;;;8.30;2.30;;;;;;;-4.05;94.22;99782.93;105206;1273;67060;-67
2022/01/07 03:50:40;;;;;;;12.60;2.40;;;;;;;-4.06;94.57;99778.44;105172;1273;71519;-67
2022/01/07 03:53:45;;;;;;;13.40;2.70;;;;;;;-4.06;94.97;99778.10;105492;1273;59708;-67
2022/01/07 03:56:37;;;;;;;8.90;2.70;;;;;;;-4.08;95.22;99776.58;104255;1273;1015810;-67
2022/01/07 03:59:41;;;;;;;12.70;3.10;;;;;;;-4.10;95.12;99773.51;104822;1273;73162;-67
2022/01/07 04:02:34;;;;;;;12.50;2.90;;;;;;;-4.12;94.97;99769.73;105243;1274;68190;-67
2022/01/07 04:05:28;;;;;;;9.00;2.70;;;;;;;-4.14;95.24;99777.21;104359;1273;1003070;-67
2022/01/07 04:08:22;;;;;;;13.20;3.70;;;;;;;-4.15;95.26;99771.70;105160;1274;59736;-67
2022/01/07 04:11:19;;;;;;;11.30;2.80;;;;;;;-4.15;95.49;99776.58;104099;1274;1003640;-67
2022/01/07 04:14:17;;;;;;;11.20;3.50;;;;;;;-4.16;95.56;99773.82;105378;1274;73330;-67
2022/01/07 04:17:13;;;;;;;11.90;2.50;;;;;;;-4.19;95.71;99771.80;104698;1275;66889;-66
2022/01/07 04:20:11;;;;;;;8.80;2.50;;;;;;;-4.23;95.37;99771.73;105149;1274;73306;-66
2022/01/07 04:23:14;;;;;;;11.30;3.30;;;;;;;-4.28;95.78;99777.89;105197;1273;59536;-67
2022/01/07 04:26:09;;;;;;;10.40;3.30;;;;;;;-4.31;95.76;99769.63;104235;1274;1003590;-67
2022/01/07 04:29:00;;;;;;;12.90;4.10;;;;;;;-4.34;95.75;99767.61;104752;1274;73344;-67
2022/01/07 04:32:09;;;;;;;13.90;3.70;;;;;;;-4.33;95.93;99770.88;105213;1274;68191;-66
2022/01/07 04:35:47;;;;;;;8.40;2.60;;;;;;;-4.32;96.07;99765.68;105051;1273;72028;-67
2022/01/07 04:39:25;;;;;;;9.00;3.20;;;;;;;-4.32;96.12;99761.51;104831;1274;59759;-66
2022/01/07 04:42:56;;;;;;;10.10;3.20;;;;;;;-4.33;96.19;99766.20;105369;1273;59355;-67
2022/01/07 04:47:22;;;;;;;10.70;2.70;;;;;;;-4.34;95.99;99763.97;105184;1274;71637;-67
2022/01/07 04:56:08;;;;;;;;;;;;;;;;;;;;;
2022/01/07 04:59:25;;;;;;;10.20;3.60;;;;;;;-4.33;96.09;99755.64;105393;1273;59703;-67
2022/01/07 05:02:20;;;;;;;11.00;3.00;;;;;;;-4.30;96.15;99753.16;104323;1274;1003792;-67
2022/01/07 05:05:19;;;;;;;8.70;3.00;;;;;;;-4.28;95.88;99751.73;104878;1274;73359;-67
2022/01/07 05:08:18;;;;;;;10.30;2.80;;;;;;;-4.27;95.81;99751.19;104154;1274;1003674;-67
2022/01/07 05:11:14;;;;;;;11.50;3.30;;;;;;;-4.27;95.61;99756.02;104263;1274;1003354;-67
2022/01/07 05:14:07;;;;;;;12.30;4.00;;;;;;;-4.26;95.75;99755.66;104988;1273;59751;-67
2022/01/07 05:17:06;;;;;;;16.00;4.00;;;;;;;-4.22;95.50;99752.46;104720;1273;1003476;-67
2022/01/07 05:20:59;;;;;;;12.30;3.70;;;;;;;-4.17;95.54;99744.90;104811;1279;73291;-67
2022/01/07 05:24:13;;;;;;;10.70;3.20;;;;;;;-4.14;95.15;99752.28;104863;1279;68341;-67
2022/01/07 05:27:25;;;;;;;13.10;3.30;;;;;;;-4.13;94.48;99756.40;104169;1279;1004295;-67
2022/01/07 05:31:22;;;;;;;15.90;4.00;;;;;;;-4.12;94.67;99752.40;104843;1281;59731;-67
2022/01/07 05:34:20;;;;;;;11.10;3.60;;;;;;;-4.11;94.49;99748.23;104649;1279;60258;-67
2022/01/07 05:37:33;;;;;;;9.60;3.20;;;;;;;-4.09;94.45;99743.52;104815;1282;71840;-67
2022/01/07 05:40:39;;;;;;;9.60;3.70;;;;;;;-4.08;94.10;99738.27;104557;1282;68136;-67
2022/01/07 05:44:22;;;;;;;9.40;2.70;;;;;;;-4.08;94.06;99740.02;104775;1282;73230;-67
2022/01/07 05:47:17;;;;;;;10.10;3.40;;;;;;;-4.09;93.76;99744.72;104486;1283;59770;-67
2022/01/07 05:54:00;;;;;;;;;;;;;;;;;;;;;
2022/01/07 05:57:10;;;;;;;12.50;3.80;;;;;;;-4.11;94.42;99746.14;105519;1276;68392;-67
2022/01/07 06:00:18;;;;;;;15.30;4.60;;;;;;;-4.09;94.51;99750.27;104755;1277;73045;-67
2022/01/07 06:03:08;;;;;;;10.10;3.70;;;;;;;-4.08;94.73;99743.66;103797;1277;1003557;-67
2022/01/07 06:06:20;;;;;;;11.40;4.40;;;;;;;-4.07;94.92;99743.11;104732;1277;60558;-67
2022/01/07 06:09:21;;;;;;;16.20;4.10;;;;;;;-4.05;94.96;99743.76;104770;1277;73694;-70
2022/01/07 06:12:19;;;;;;;15.40;4.50;;;;;;;-4.02;95.11;99745.60;104983;1277;66074;-67
2022/01/07 06:15:10;;;;;;;16.00;4.40;;;;;;;-4.00;95.15;99739.83;105226;1274;73036;-68
2022/01/07 06:18:16;;;;;;;;;;;;;;;;;;;;;
2022/01/07 06:21:40;;;;;;;11.40;3.80;;;;;;;-3.92;95.23;99745.90;105087;1275;59659;-67
2022/01/07 06:28:24;;;;;;;15.30;4.00;;;;;;;-3.87;95.18;99737.27;105529;1272;68677;-67
2022/01/07 06:31:16;;;;;;;13.10;3.70;;;;;;;-3.84;95.11;99739.98;105093;1274;71201;-67
2022/01/07 06:45:14;;;;;;;14.00;4.10;;;;;;;-3.72;95.28;99755.64;104927;1281;72187;-67
2022/01/07 06:52:47;;;;;;;11.30;4.30;;;;;;;-3.67;95.40;99757.27;105147;1280;74653;-69
2022/01/07 06:55:48;;;;;;;15.80;4.60;;;;;;;-3.63;94.98;99754.73;104741;1280;59938;-68
2022/01/07 06:59:08;;;;;;;22.90;7.60;;;;;;;-3.62;94.81;99749.86;104745;1281;61307;-70
2022/01/07 07:02:03;;;;;;;17.20;5.70;;;;;;;-3.55;94.56;99756.27;104527;1279;73309;-68
2022/01/07 07:05:03;;;;;;;18.10;6.00;;;;;;;-3.56;94.31;99757.16;104808;1280;66892;-68
2022/01/07 07:08:05;;;;;;;17.50;5.20;;;;;;;-3.61;94.15;99756.09;104638;1280;72066;-68
2022/01/07 07:10:55;;;;;;;14.80;4.90;;;;;;;-3.64;94.38;99753.73;104631;1280;59683;-67
2022/01/07 07:13:50;;;;;;;15.30;5.10;;;;;;;-3.68;94.41;99749.83;104030;1277;1003251;-68
2022/01/07 07:17:31;;;;;;;14.90;4.80;;;;;;;-3.71;94.72;99754.58;104201;1277;1002796;-67
2022/01/07 07:20:32;;;;;;;11.70;3.50;;;;;;;-3.74;95.10;99746.14;105235;1273;67829;-68
2022/01/07 07:23:46;;;;;;;22.70;6.70;;;;;;;-3.76;95.50;99751.05;105001;1274;71540;-67
2022/01/07 07:26:42;;;;;;;16.60;5.20;;;;;;;-3.75;95.51;99748.96;105183;1273;59655;-67
2022/01/07 07:29:54;;;;;;;12.30;4.30;;;;;;;-3.77;95.49;99747.80;105327;1273;60630;-67
2022/01/07 07:36:51;;;;;;;15.80;5.70;;;;;;;-3.72;96.43;99747.84;104965;1277;66873;-68
2022/01/07 07:39:47;;;;;;;20.40;8.00;;;;;;;-3.65;96.77;99745.77;104800;1277;71703;-68
2022/01/07 07:43:09;;;;;;;23.60;8.40;;;;;;;-3.57;96.85;99747.48;105060;1277;59599;-67
2022/01/07 07:46:20;;;;;;;20.50;7.40;;;;;;;-3.48;97.05;99743.95;104864;1277;59563;-67
2022/01/07 07:49:39;;;;;;;20.00;7.30;;;;;;;-3.41;97.19;99743.62;104959;1278;72184;-68
2022/01/07 07:52:39;;;;;;;21.50;7.40;;;;;;;-3.35;97.25;99743.48;105037;1278;66811;-67
2022/01/07 07:55:30;;;;;;;24.40;8.40;;;;;;;-3.27;97.18;99743.07;104736;1277;73031;-67
2022/01/07 07:58:29;;;;;;;23.50;8.00;;;;;;;-3.17;97.06;99742.28;104772;1277;59743;-69
2022/01/07 08:01:38;;;;;;;21.10;7.90;;;;;;;-3.06;96.75;99750.00;105071;1278;61383;-67
2022/01/07 08:05:33;;;;;;;21.30;8.20;;;;;;;-2.97;96.45;99743.34;103672;1279;1002826;-68
2022/01/07 08:08:27;;;;;;;25.00;7.90;;;;;;;-2.91;96.18;99745.61;104948;1278;66667;-67
2022/01/07 08:11:21;;;;;;;19.60;7.60;;;;;;;-2.84;96.23;99747.13;105071;1277;71512;-68
2022/01/07 08:18:01;;;;;;;23.50;9.20;;;;;;;-2.79;96.10;99745.09;104900;1274;59577;-68
2022/01/07 08:21:37;;;;;;;29.10;9.40;;;;;;;-2.75;96.02;99744.27;104383;1273;1002997;-69
2022/01/07 08:24:54;;;;;;;28.90;9.30;;;;;;;-2.65;96.09;99750.96;104974;1273;69299;-68
2022/01/07 08:27:54;;;;;;;21.70;8.40;;;;;;;-2.60;95.90;99747.33;105063;1277;74714;-68
2022/01/07 08:31:24;;;;;;;23.20;8.80;;;;;;;-2.53;95.85;99746.27;105153;1276;59687;-69
2022/01/07 08:37:32;;;;;;;24.70;9.40;;;;;;;-2.31;95.01;99743.55;104627;1278;72104;-68
2022/01/07 08:40:30;;;;;;;25.50;9.00;;;;;;;-2.24;94.70;99735.86;104821;1276;66826;-68
2022/01/07 08:43:20;;;;;;;25.60;10.10;;;;;;;-2.19;94.36;99735.55;104700;1278;71664;-68
2022/01/07 08:46:23;;;;;;;26.80;9.20;;;;;;;-2.18;94.12;99732.39;105090;1276;59628;-69
2022/01/07 08:49:38;;;;;;;24.10;10.20;;;;;;;-2.16;94.23;99735.25;104661;1281;60123;-67
2022/01/07 08:52:47;;;;;;;31.70;10.10;;;;;;;-2.12;94.43;99734.80;104363;1282;72300;-68
2022/01/07 09:00:19;;;;;;;26.30;8.90;;;;;;;-1.94;94.10;99740.67;105290;1277;73034;-69
2022/01/07 09:03:11;;;;;;;22.60;9.00;;;;;;;-1.86;93.21;99741.61;104634;1278;59788;-68
2022/01/07 09:09:44;;;;;;;24.70;9.30;;;;;;;-1.53;92.36;99745.29;104673;1277;72161;-68
2022/01/07 09:12:55;;;;;;;23.80;8.30;;;;;;;-1.44;91.82;99740.96;104776;1277;65812;-67
2022/01/07 09:16:16;;;;;;;23.50;9.70;;;;;;;-1.43;91.33;99739.52;104820;1277;72907;-69
2022/01/07 09:19:06;;;;;;;25.10;9.10;;;;;;;-1.35;91.09;99745.91;104850;1273;60295;-68
2022/01/07 09:22:08;;;;;;;24.90;9.50;;;;;;;-1.33;90.99;99745.84;105342;1273;60641;-68
2022/01/07 09:24:56;;;;;;;23.00;8.70;;;;;;;-1.29;91.17;99740.83;104906;1274;71561;-68
2022/01/07 09:28:20;;;;;;;27.90;10.10;;;;;;;-1.24;90.73;99740.15;105061;1279;67734;-68
2022/01/07 09:31:11;;;;;;;24.80;9.00;;;;;;;-1.24;90.63;99741.00;104898;1279;72948;-68
2022/01/07 09:34:00;;;;;;;27.80;9.40;;;;;;;-1.17;90.34;99737.46;104648;1279;59693;-69
2022/01/07 09:37:50;;;;;;;27.10;9.80;;;;;;;-1.07;90.11;99741.27;104843;1281;59688;-69
2022/01/07 09:41:30;;;;;;;23.00;9.60;;;;;;;-0.83;89.33;99737.81;104404;1278;76269;-69
2022/01/07 09:44:26;;;;;;;22.70;9.00;;;;;;;-0.56;89.09;99736.52;104737;1279;66627;-69
2022/01/07 09:47:21;;;;;;;28.50;11.00;;;;;;;-0.29;87.38;99734.98;105333;1273;70748;-68
2022/01/07 09:50:29;;;;;;;24.60;9.70;;;;;;;-0.09;85.79;99734.02;105392;1274;59736;-68
2022/01/07 09:53:35;;;;;;;26.10;10.40;;;;;;;0.16;85.42;99733.41;105989;1273;59573;-69
2022/01/07 09:56:43;;;;;;;26.20;9.50;;;;;;;0.34;84.17;99729.00;105236;1273;73215;-69
2022/01/07 10:00:15;;;;;;;22.90;9.70;;;;;;;0.55;83.76;99722.06;105297;1273;68126;-68
2022/01/07 10:03:17;;;;;;;24.90;8.70;;;;;;;0.57;82.43;99719.53;105093;1273;73289;-69
2022/01/07 10:06:25;;;;;;;30.70;10.60;;;;;;;0.55;82.16;99717.01;105406;1273;59724;-68
2022/01/07 10:09:23;;;;;;;24.90;10.40;;;;;;;0.55;82.04;99714.55;105303;1273;59655;-70
2022/01/07 10:12:11;;;;;;;31.90;14.30;;;;;;;0.63;82.11;99710.54;105176;1273;72122;-68
2022/01/07 10:15:12;;;;;;;39.10;16.80;;;;;;;0.77;81.81;99710.45;105143;1273;68481;-69
2022/01/07 10:18:07;;;;;;;46.60;20.40;;;;;;;0.88;81.15;99705.30;105349;1273;73086;-69
2022/01/07 10:21:19;;;;;;;34.00;15.70;;;;;;;0.88;80.72;99698.48;105283;1273;59745;-70
2022/01/07 10:24:09;;;;;;;38.10;17.60;;;;;;;0.86;80.41;99693.80;105114;1273;59621;-70
2022/01/07 10:27:14;;;;;;;35.30;14.90;;;;;;;0.79;80.50;99696.05;105045;1272;73391;-70
2022/01/07 10:30:19;;;;;;;34.00;14.80;;;;;;;0.68;80.98;99696.52;105232;1273;68375;-69
2022/01/07 10:33:26;;;;;;;31.50;12.30;;;;;;;0.60;81.34;99694.95;105527;1273;73477;-70
2022/01/07 10:36:22;;;;;;;29.50;11.90;;;;;;;0.51;81.70;99687.80;105501;1272;59703;-69
2022/01/07 10:39:10;;;;;;;24.60;10.60;;;;;;;0.58;82.08;99687.50;105648;1273;59639;-71
2022/01/07 10:42:00;;;;;;;28.70;11.80;;;;;;;0.59;81.69;99685.04;105456;1273;73342;-69
2022/01/07 10:45:04;;;;;;;34.60;13.70;;;;;;;0.62;81.67;99688.73;104981;1273;68728;-69
2022/01/07 10:47:53;;;;;;;29.20;11.40;;;;;;;0.61;81.48;99694.72;105014;1273;72017;-69
2022/01/07 10:50:45;;;;;;;39.80;15.10;;;;;;;0.52;81.77;99693.70;104979;1274;59693;-69
2022/01/07 10:53:34;;;;;;;57.10;20.70;;;;;;;0.48;82.10;99688.11;105169;1272;59673;-70
2022/01/07 10:56:51;;;;;;;45.60;17.10;;;;;;;0.48;82.06;99690.73;105359;1273;73711;-69
2022/01/07 11:00:14;;;;;;;46.90;16.00;;;;;;;0.48;82.12;99686.55;105014;1274;67057;-69
2022/01/07 11:03:10;;;;;;;44.00;15.50;;;;;;;0.51;82.17;99682.55;104930;1273;72947;-72
2022/01/07 11:06:36;;;;;;;47.50;16.20;;;;;;;0.71;81.90;99685.95;104636;1273;1003119;-69
2022/01/07 11:09:26;;;;;;;45.10;16.40;;;;;;;1.09;80.05;99682.36;104357;1282;60607;-69
2022/01/07 11:12:16;;;;;;;41.70;16.30;;;;;;;1.08;79.79;99675.56;104037;1282;73554;-69
2022/01/07 11:15:10;;;;;;;34.40;13.40;;;;;;;1.33;79.51;99672.02;104111;1284;68503;-69
2022/01/07 11:18:01;;;;;;;41.60;16.40;;;;;;;1.56;78.37;99665.37;104232;1284;73063;-69
2022/01/07 11:20:50;;;;;;;31.40;13.40;;;;;;;1.82;76.58;99656.95;104308;1285;59821;-69
2022/01/07 11:23:41;;;;;;;28.00;11.00;;;;;;;1.93;75.80;99654.88;103837;1284;60524;-70
2022/01/07 11:27:23;;;;;;;36.10;14.20;;;;;;;1.98;75.43;99658.27;104436;1284;72225;-69
2022/01/07 11:30:18;;;;;;;44.80;17.10;;;;;;;1.83;75.55;99655.33;104260;1284;68222;-69
2022/01/07 11:33:20;;;;;;;31.80;14.20;;;;;;;1.72;76.10;99655.17;104228;1284;72975;-70
2022/01/07 11:36:12;;;;;;;30.60;12.60;;;;;;;1.58;76.37;99653.19;104383;1284;59822;-69
2022/01/07 11:39:07;;;;;;;32.00;12.60;;;;;;;1.44;76.96;99652.61;103985;1284;59878;-70
2022/01/07 11:41:56;;;;;;;32.40;13.70;;;;;;;1.32;76.92;99648.59;104094;1284;73088;-68
2022/01/07 11:44:44;;;;;;;28.80;11.40;;;;;;;1.37;76.91;99649.30;104347;1285;66855;-69
2022/01/07 11:47:48;;;;;;;26.00;11.30;;;;;;;1.62;76.41;99644.08;105124;1273;72012;-70
2022/01/07 11:51:14;;;;;;;31.40;11.80;;;;;;;1.57;75.48;99647.66;105064;1274;59835;-69
2022/01/07 11:55:49;;;;;;;29.20;10.80;;;;;;;1.50;76.02;99645.00;105223;1273;59618;-70
2022/01/07 11:59:26;;;;;;;29.10;11.70;;;;;;;1.22;76.60;99650.12;105137;1273;73650;-70
2022/01/07 12:03:06;;;;;;;25.60;11.90;;;;;;;1.05;77.35;99648.08;105518;1273;66650;-70
2022/01/07 12:06:43;;;;;;;27.80;11.80;;;;;;;1.03;78.24;99647.48;105043;1273;72381;-69
2022/01/07 12:10:12;;;;;;;29.50;12.30;;;;;;;1.03;77.95;99644.36;105416;1273;59768;-70
2022/01/07 12:13:01;;;;;;;28.10;11.60;;;;;;;0.94;77.96;99641.40;105117;1274;59743;-70
2022/01/07 12:16:11;;;;;;;29.30;11.10;;;;;;;0.87;78.13;99640.19;105263;1273;73726;-70
2022/01/07 12:19:37;;;;;;;21.50;9.30;;;;;;;0.82;78.73;99634.41;105044;1273;67872;-70
2022/01/07 12:22:30;;;;;;;22.30;8.10;;;;;;;0.81;78.58;99630.63;105232;1273;70677;-69
2022/01/07 12:25:34;;;;;;;28.20;10.80;;;;;;;0.74;78.67;99632.67;105250;1273;59657;-69
2022/01/07 12:28:28;;;;;;;21.60;8.80;;;;;;;0.73;78.94;99633.62;105174;1274;60506;-69
2022/01/07 12:31:51;;;;;;;24.70;9.00;;;;;;;0.82;78.88;99631.14;105658;1273;75010;-71
2022/01/07 12:40:14;;;;;;;26.10;9.50;;;;;;;1.15;77.78;99636.31;104033;1291;73309;-69
2022/01/07 12:43:10;;;;;;;23.50;9.10;;;;;;;1.19;77.50;99632.08;104245;1286;60042;-70
2022/01/07 12:46:26;;;;;;;27.10;8.90;;;;;;;1.12;77.47;99626.98;103797;1286;60473;-69
2022/01/07 12:54:07;;;;;;;30.50;10.30;;;;;;;0.66;79.20;99618.39;104153;1284;66863;-70
2022/01/07 12:57:59;;;;;;;;;;;;;;;;;;;;;
2022/01/07 13:01:39;;;;;;;21.80;8.50;;;;;;;0.21;81.50;99612.27;103798;1290;59878;-69
2022/01/07 13:06:02;;;;;;;25.00;9.80;;;;;;;0.14;82.18;99610.30;103672;1290;59684;-69
2022/01/07 13:11:26;;;;;;;22.20;8.40;;;;;;;0.09;82.82;99606.65;104236;1290;73497;-70
2022/01/07 13:15:43;;;;;;;;;;;;;;;;;;;;;
2022/01/07 13:25:14;;;;;;;23.00;7.90;;;;;;;-0.30;84.15;99594.64;103914;1285;59857;-69
2022/01/07 13:30:56;;;;;;;34.30;11.40;;;;;;;-0.45;84.63;99593.18;103247;1290;1003628;-69
2022/01/07 13:35:41;;;;;;;;;;;;;;;;;;;;;
2022/01/07 14:05:39;;;;;;;21.80;7.50;;;;;;;-0.70;84.74;99581.42;105003;1279;68909;-70
2022/01/07 14:10:54;;;;;;;18.20;6.40;;;;;;;-0.68;84.73;99582.91;104188;1287;71658;-69
2022/01/07 14:40:52;;;;;;;24.70;8.50;;;;;;;-0.66;84.10;99565.43;102516;1308;60013;-69
2022/01/07 14:51:20;;;;;;;27.00;9.60;;;;;;;-0.71;84.51;99571.88;102195;1305;72705;-69
2022/01/07 15:11:31;;;;;;;23.30;7.90;;;;;;;-0.86;85.11;99561.48;101265;1317;61968;-69
2022/01/07 15:32:08;;;;;;;27.80;9.10;;;;;;;-1.04;85.58;99551.70;101334;1321;59820;-69
2022/01/07 15:36:53;;;;;;;25.10;7.40;;;;;;;-1.06;85.60;99547.77;100842;1323;61851;-70
2022/01/07 15:51:43;;;;;;;17.80;7.10;;;;;;;-1.16;85.84;99538.09;100968;1323;71691;-69
2022/01/07 15:56:10;;;;;;;;;;;;;;;;;;;;;
2022/01/07 15:59:54;;;;;;;14.20;5.80;;;;;;;-1.19;86.05;99535.92;101918;1318;60473;-70
2022/01/07 16:04:02;;;;;;;;;;;;;;;;;;;;;
2022/01/07 16:12:45;;;;;;;25.50;9.20;;;;;;;-1.17;86.29;99527.66;104062;1290;72752;-69
2022/01/07 16:17:22;;;;;;;40.20;12.00;;;;;;;-1.15;86.06;99530.73;104654;1287;59881;-69
2022/01/07 16:32:44;;;;;;;24.80;9.30;;;;;;;-1.09;86.15;99511.17;104836;1281;67179;-69
2022/01/07 16:37:57;;;;;;;;;;;;;;;;;;;;;
2022/01/07 16:57:32;;;;;;;27.30;10.20;;;;;;;-1.09;86.37;99497.38;103077;1300;68111;-70
2022/01/07 17:02:52;;;;;;;20.00;8.60;;;;;;;-1.09;86.65;99502.98;103186;1300;72863;-70
2022/01/07 17:06:38;;;;;;;23.00;8.40;;;;;;;-1.07;86.46;99506.04;102434;1311;59522;-69
2022/01/07 17:30:47;;;;;;;27.20;10.60;;;;;;;-1.09;86.59;99501.95;102352;1301;59652;-69
2022/01/07 17:44:20;;;;;;;32.10;10.70;;;;;;;-1.20;86.78;99510.86;103015;1300;68154;-69
2022/01/07 17:48:46;;;;;;;;;;;;;;;;;;;;;
2022/01/07 17:53:18;;;;;;;27.20;10.50;;;;;;;-1.22;86.66;99509.70;102464;1306;59729;-69
2022/01/07 17:57:37;;;;;;;;;;;;;;;;;;;;;
2022/01/07 18:12:39;;;;;;;21.80;8.60;;;;;;;-1.27;86.60;99482.07;101646;1303;1002716;-69
2022/01/07 18:19:46;;;;;;;22.40;8.60;;;;;;;-1.27;86.29;99487.11;99046;1296;5505884;-69
2022/01/07 18:23:11;;;;;;;;;;;;;;;;;;;;;
2022/01/07 18:29:34;;;;;;;19.50;8.40;;;;;;;-1.32;86.18;99473.73;103920;1287;59791;-68
2022/01/07 18:33:43;;;;;;;20.30;7.10;;;;;;;-1.34;86.32;99474.15;103267;1291;59839;-69
2022/01/07 18:37:07;;;;;;;27.10;10.00;;;;;;;-1.35;86.29;99478.20;103749;1290;73462;-69
2022/01/07 18:40:09;;;;;;;20.40;7.00;;;;;;;-1.39;86.50;99471.91;102967;1290;1003184;-69
2022/01/07 18:43:33;;;;;;;27.50;10.60;;;;;;;-1.40;86.54;99479.26;103705;1290;71877;-68
2022/01/07 18:46:31;;;;;;;24.50;9.20;;;;;;;-1.41;86.63;99473.38;103725;1288;59772;-67
2022/01/07 18:49:48;;;;;;;22.40;9.10;;;;;;;-1.40;86.54;99472.27;104379;1280;59754;-68
2022/01/07 20:16:47;;;;;;;23.30;8.20;;;;;;;-1.68;88.92;99433.52;105004;1289;71838;-68
2022/01/07 20:42:01;;;;;;;26.40;10.10;;;;;;;-1.47;89.12;99438.12;102639;1297;72134;-67
2022/01/07 20:44:50;;;;;;;26.90;10.30;;;;;;;-1.47;89.29;99436.35;102661;1295;66846;-67
2022/01/07 20:47:38;;;;;;;25.80;10.70;;;;;;;-1.46;89.46;99440.85;102635;1297;71577;-67
2022/01/07 20:50:27;;;;;;;27.00;11.30;;;;;;;-1.45;89.43;99437.84;102627;1288;59976;-67
2022/01/07 20:53:17;;;;;;;22.40;9.70;;;;;;;-1.46;89.78;99439.63;103852;1287;59704;-68
2022/01/07 20:56:05;;;;;;;30.40;12.30;;;;;;;-1.45;89.62;99439.95;104213;1276;71310;-67
2022/01/07 20:59:05;;;;;;;27.00;10.30;;;;;;;-1.43;89.82;99443.33;104628;1273;67647;-67
2022/01/07 21:01:53;;;;;;;24.60;10.50;;;;;;;-1.44;89.93;99441.80;104187;1274;1003152;-67
2022/01/07 21:04:51;;;;;;;24.00;10.00;;;;;;;-1.45;90.31;99436.80;104727;1274;60873;-67
2022/01/07 21:07:47;;;;;;;28.60;11.60;;;;;;;-1.45;90.51;99433.52;104921;1274;60574;-67
2022/01/07 21:10:35;;;;;;;24.20;10.70;;;;;;;-1.43;90.20;99432.56;104742;1274;73267;-68